Time;durP1;ratioP1;P1;durP2;ratioP2;P2;SDS_P1;SDS_P2;PMS_P1;PMS_P2;Temp;Humidity;BMP_temperature;BMP_pressure;BME280_temperature;BME280_humidity;BME280_pressure;Samples;Min_cycle;Max_cycle;Signal;HPM_P1;HPM_P2
2021/07/23 00:01:40;;;;;;;4.40;3.30;;;18.10;99.90;;;;;;5068178;28;20545;-72
2021/07/23 00:04:06;;;;;;;6.47;3.30;;;18.00;99.90;;;;;;5055980;28;20548;-73
2021/07/23 00:06:33;;;;;;;5.47;4.33;;;18.10;99.90;;;;;;5054144;28;20959;-72
2021/07/23 00:09:00;;;;;;;3.60;3.20;;;17.90;99.90;;;;;;5052806;28;20470;-72
2021/07/23 00:11:27;;;;;;;4.73;3.67;;;17.90;99.90;;;;;;5058047;28;20575;-74
2021/07/23 00:13:54;;;;;;;4.40;3.07;;;17.90;99.90;;;;;;5058029;28;20550;-71
2021/07/23 00:16:21;;;;;;;4.63;3.17;;;17.70;99.90;;;;;;5058014;28;20537;-71
2021/07/23 00:18:49;;;;;;;9.90;4.10;;;17.70;99.90;;;;;;5062338;28;20554;-72
2021/07/23 00:21:16;;;;;;;5.20;4.10;;;17.70;99.90;;;;;;5060698;28;20507;-71
2021/07/23 00:23:43;;;;;;;5.20;3.43;;;17.80;99.90;;;;;;5060667;28;20545;-72
2021/07/23 00:26:10;;;;;;;5.30;4.07;;;17.70;99.90;;;;;;5063012;28;20446;-71
2021/07/23 00:28:37;;;;;;;5.27;4.23;;;17.80;99.90;;;;;;5052690;28;20577;-72
2021/07/23 00:31:04;;;;;;;7.00;3.70;;;17.80;99.90;;;;;;5060836;28;20457;-72
2021/07/23 00:33:31;;;;;;;6.30;4.07;;;17.80;99.90;;;;;;5058079;28;20569;-72
2021/07/23 00:36:01;;;;;;;5.63;4.10;;;17.80;99.90;;;;;;5059650;28;20806;-72
2021/07/23 00:38:28;;;;;;;4.53;3.00;;;17.90;99.90;;;;;;5063276;28;20478;-72
2021/07/23 00:40:55;;;;;;;6.87;3.80;;;17.80;99.90;;;;;;5064248;28;20541;-72
2021/07/23 00:43:22;;;;;;;4.73;3.53;;;17.80;99.90;;;;;;5055396;28;20454;-72
2021/07/23 00:45:49;;;;;;;4.77;3.80;;;17.70;99.90;;;;;;5062089;28;20977;-71
2021/07/23 00:48:17;;;;;;;4.43;2.90;;;17.90;99.90;;;;;;5058352;28;20574;-70
2021/07/23 00:50:45;;;;;;;3.97;3.30;;;18.00;99.90;;;;;;5062811;28;20489;-72
2021/07/23 00:53:14;;;;;;;5.23;4.07;;;18.00;99.90;;;;;;5059063;28;20934;-72
2021/07/23 00:55:43;;;;;;;3.47;2.90;;;17.90;99.90;;;;;;5057204;28;20467;-72
2021/07/23 00:58:10;;;;;;;7.17;3.20;;;17.90;99.90;;;;;;5063585;28;20616;-72
2021/07/23 01:00:39;;;;;;;7.53;4.40;;;18.00;99.90;;;;;;5057734;28;20533;-72
2021/07/23 01:03:07;;;;;;;5.30;4.00;;;18.00;99.90;;;;;;5059356;28;20842;-72
2021/07/23 01:05:35;;;;;;;4.07;3.40;;;18.00;99.90;;;;;;5060860;28;20542;-71
2021/07/23 01:08:03;;;;;;;5.63;3.50;;;18.10;99.90;;;;;;5058751;28;20683;-72
2021/07/23 01:10:32;;;;;;;6.40;4.00;;;18.10;99.90;;;;;;5061986;28;21243;-71
2021/07/23 01:13:01;;;;;;;9.20;3.20;;;17.90;99.90;;;;;;5058228;28;20561;-72
2021/07/23 01:15:28;;;;;;;9.33;3.73;;;17.90;99.90;;;;;;5053808;28;20550;-71
2021/07/23 01:17:55;;;;;;;6.40;3.87;;;17.80;99.90;;;;;;5057357;28;20478;-70
2021/07/23 01:20:25;;;;;;;6.50;4.30;;;17.60;99.90;;;;;;5053563;28;20486;-72
2021/07/23 01:22:54;;;;;;;10.70;3.40;;;17.60;99.90;;;;;;5056609;28;20528;-71
2021/07/23 01:25:23;;;;;;;6.50;3.60;;;17.70;99.90;;;;;;5056476;28;20494;-72
2021/07/23 01:27:51;;;;;;;4.60;3.87;;;17.90;99.90;;;;;;5058229;28;20490;-72
2021/07/23 01:30:19;;;;;;;5.00;3.60;;;17.70;99.90;;;;;;5059757;28;20458;-71
2021/07/23 01:32:45;;;;;;;4.27;3.10;;;17.60;99.90;;;;;;5056090;28;20565;-72
2021/07/23 01:35:13;;;;;;;3.80;2.87;;;17.60;99.90;;;;;;5057792;28;20912;-72
2021/07/23 01:37:41;;;;;;;7.20;4.47;;;17.40;99.90;;;;;;5055944;28;20931;-73
2021/07/23 01:40:09;;;;;;;6.70;3.67;;;17.40;99.90;;;;;;5057168;28;20833;-72
2021/07/23 01:42:38;;;;;;;7.40;4.07;;;17.30;99.90;;;;;;5054447;28;20501;-72
2021/07/23 01:45:06;;;;;;;4.63;2.90;;;17.30;99.90;;;;;;5057960;28;20549;-72
2021/07/23 01:47:33;;;;;;;5.67;3.60;;;17.30;99.90;;;;;;5056321;28;20510;-72
2021/07/23 01:50:01;;;;;;;6.53;4.40;;;17.20;99.90;;;;;;5060031;28;20530;-71
2021/07/23 01:52:29;;;;;;;7.80;3.77;;;17.10;99.90;;;;;;5054186;28;20523;-72
2021/07/23 01:54:56;;;;;;;5.37;4.20;;;17.00;99.90;;;;;;5060138;28;20450;-71
2021/07/23 01:57:23;;;;;;;7.67;3.97;;;17.00;99.90;;;;;;5057071;28;20499;-70
2021/07/23 01:59:51;;;;;;;7.53;5.10;;;17.00;99.90;;;;;;5059540;28;20453;-71
2021/07/23 02:02:18;;;;;;;6.73;3.83;;;17.00;99.90;;;;;;5055765;28;20565;-72
2021/07/23 02:04:45;;;;;;;9.10;5.23;;;17.00;99.90;;;;;;5052950;28;20462;-72
2021/07/23 02:07:14;;;;;;;5.27;3.30;;;16.90;99.90;;;;;;5060459;28;20539;-71
2021/07/23 02:09:41;;;;;;;5.80;3.50;;;17.00;99.90;;;;;;5058511;28;20447;-71
2021/07/23 02:12:09;;;;;;;7.70;3.67;;;17.10;99.90;;;;;;5061160;28;20542;-72
2021/07/23 02:14:36;;;;;;;7.53;3.67;;;17.00;99.90;;;;;;5057918;28;20479;-72
2021/07/23 02:17:04;;;;;;;9.40;4.77;;;17.00;99.90;;;;;;5060214;28;20474;-72
2021/07/23 02:19:31;;;;;;;5.90;3.77;;;17.10;99.90;;;;;;5060293;28;20546;-72
2021/07/23 02:21:58;;;;;;;7.83;4.93;;;17.10;99.90;;;;;;5058926;28;21021;-72
2021/07/23 02:24:25;;;;;;;12.93;5.10;;;17.00;99.90;;;;;;5057106;28;20587;-73
2021/07/23 02:26:53;;;;;;;6.40;4.70;;;17.10;99.90;;;;;;5057814;28;20473;-72
2021/07/23 02:29:21;;;;;;;8.43;5.20;;;17.10;99.90;;;;;;5057080;28;20903;-72
2021/07/23 02:31:48;;;;;;;6.53;4.23;;;17.10;99.90;;;;;;5060056;28;20537;-72
2021/07/23 02:34:16;;;;;;;12.53;7.80;;;17.10;99.90;;;;;;5059269;28;20478;-73
2021/07/23 02:36:43;;;;;;;5.43;4.13;;;17.00;99.90;;;;;;5060312;28;20449;-72
2021/07/23 02:39:10;;;;;;;5.90;4.47;;;17.00;99.90;;;;;;5063331;28;20438;-73
2021/07/23 02:41:37;;;;;;;5.40;3.90;;;16.90;99.90;;;;;;5060607;28;20550;-72
2021/07/23 02:44:05;;;;;;;8.90;4.50;;;16.90;99.90;;;;;;5060476;28;20529;-72
2021/07/23 02:46:32;;;;;;;4.93;4.20;;;16.80;99.90;;;;;;5063362;28;20480;-72
2021/07/23 02:48:59;;;;;;;7.83;5.03;;;16.70;99.90;;;;;;5055353;28;20550;-72
2021/07/23 02:51:28;;;;;;;5.63;4.17;;;16.50;99.90;;;;;;5052254;28;20484;-72
2021/07/23 02:53:55;;;;;;;6.33;4.07;;;16.40;99.90;;;;;;5053346;28;21064;-72
2021/07/23 02:56:22;;;;;;;5.10;3.70;;;16.40;99.90;;;;;;5055381;28;20541;-72
2021/07/23 02:58:49;;;;;;;5.37;4.17;;;16.50;99.90;;;;;;5055432;28;20557;-71
2021/07/23 03:01:16;;;;;;;5.03;4.47;;;16.50;99.90;;;;;;5053874;28;20451;-72
2021/07/23 03:03:42;;;;;;;8.00;4.37;;;16.50;99.90;;;;;;5049572;28;20519;-72
2021/07/23 03:06:09;;;;;;;5.93;3.73;;;16.40;99.90;;;;;;5054314;28;26299;-72
2021/07/23 03:08:38;;;;;;;6.50;3.83;;;16.50;99.90;;;;;;5046738;28;20554;-72
2021/07/23 03:11:05;;;;;;;7.10;6.27;;;16.50;99.90;;;;;;5052845;28;20545;-72
2021/07/23 03:13:32;;;;;;;12.10;4.07;;;16.40;99.90;;;;;;5060827;28;20628;-72
2021/07/23 03:15:59;;;;;;;5.63;3.93;;;16.40;99.90;;;;;;5057421;28;20497;-72
2021/07/23 03:18:26;;;;;;;7.73;4.27;;;16.40;99.90;;;;;;5060499;28;20914;-72
2021/07/23 03:20:53;;;;;;;6.17;4.50;;;16.40;99.90;;;;;;5057098;28;20482;-71
2021/07/23 03:23:20;;;;;;;10.60;4.37;;;16.30;99.90;;;;;;5049332;28;20603;-71
2021/07/23 03:25:48;;;;;;;9.90;5.97;;;16.30;99.90;;;;;;5058598;28;21041;-71
2021/07/23 03:28:15;;;;;;;4.40;3.47;;;16.30;99.90;;;;;;5049266;28;21054;-71
2021/07/23 03:30:42;;;;;;;7.00;4.23;;;16.30;99.90;;;;;;5054728;28;20963;-70
2021/07/23 03:33:09;;;;;;;6.87;3.50;;;16.30;99.90;;;;;;5057411;28;20490;-70
2021/07/23 03:35:36;;;;;;;7.50;5.43;;;16.20;99.90;;;;;;5058476;28;20461;-70
2021/07/23 03:38:03;;;;;;;7.53;5.00;;;16.20;99.90;;;;;;5054732;28;20462;-70
2021/07/23 03:40:30;;;;;;;9.83;5.20;;;16.20;99.90;;;;;;5063087;28;20533;-71
2021/07/23 03:42:58;;;;;;;6.97;4.63;;;16.10;99.90;;;;;;5064029;28;20486;-71
2021/07/23 03:45:25;;;;;;;7.63;4.43;;;16.10;99.90;;;;;;5053504;28;21779;-71
2021/07/23 03:47:52;;;;;;;7.93;4.43;;;16.10;99.90;;;;;;5064519;28;20561;-70
2021/07/23 03:50:19;;;;;;;5.23;4.07;;;16.10;99.90;;;;;;5064272;28;20479;-72
2021/07/23 03:52:46;;;;;;;6.10;4.30;;;16.00;99.90;;;;;;5057263;28;20454;-71
2021/07/23 03:55:13;;;;;;;8.37;4.50;;;15.90;99.90;;;;;;5058512;28;20454;-71
2021/07/23 03:57:40;;;;;;;5.77;3.80;;;15.90;99.90;;;;;;5053612;28;20471;-72
2021/07/23 04:00:10;;;;;;;7.43;5.03;;;15.90;99.90;;;;;;5054467;28;20453;-70
2021/07/23 04:02:37;;;;;;;8.33;5.77;;;15.90;99.90;;;;;;5056227;28;20561;-71
2021/07/23 04:05:05;;;;;;;8.37;5.13;;;16.00;99.90;;;;;;5051927;28;20937;-71
2021/07/23 04:07:32;;;;;;;6.43;4.77;;;15.90;99.90;;;;;;5054737;28;20482;-71
2021/07/23 04:10:01;;;;;;;8.77;5.03;;;15.90;99.90;;;;;;5056553;28;20465;-72
2021/07/23 04:12:28;;;;;;;4.87;4.17;;;16.00;99.90;;;;;;5055806;28;21629;-71
2021/07/23 04:14:54;;;;;;;8.10;4.70;;;15.90;99.90;;;;;;5052314;28;20525;-72
2021/07/23 04:17:23;;;;;;;7.50;4.20;;;15.80;99.90;;;;;;5060778;28;20485;-72
2021/07/23 04:19:49;;;;;;;4.73;3.60;;;15.80;99.90;;;;;;5057821;28;20542;-72
2021/07/23 04:22:17;;;;;;;6.40;4.20;;;15.80;99.90;;;;;;5059143;28;21013;-71
2021/07/23 04:24:44;;;;;;;7.20;4.77;;;15.70;99.90;;;;;;5059626;28;20508;-72
2021/07/23 04:27:13;;;;;;;7.03;4.53;;;15.80;99.90;;;;;;5053691;28;20860;-71
2021/07/23 04:29:40;;;;;;;9.50;5.70;;;15.80;99.90;;;;;;5057324;28;20470;-72
2021/07/23 04:32:07;;;;;;;7.63;5.40;;;15.80;99.90;;;;;;5052505;28;20581;-71
2021/07/23 04:34:36;;;;;;;9.33;5.70;;;15.70;99.90;;;;;;5056430;28;20562;-72
2021/07/23 04:37:03;;;;;;;8.17;4.70;;;15.70;99.90;;;;;;5059866;28;20555;-71
2021/07/23 04:39:30;;;;;;;8.87;3.90;;;15.70;99.90;;;;;;5049625;28;20835;-72
2021/07/23 04:41:57;;;;;;;4.80;4.27;;;15.60;99.90;;;;;;5058471;28;20458;-71
2021/07/23 04:44:24;;;;;;;6.90;4.70;;;15.70;99.90;;;;;;5058079;28;20569;-72
2021/07/23 04:46:51;;;;;;;4.90;4.40;;;15.80;99.90;;;;;;5064424;28;20553;-71
2021/07/23 04:49:18;;;;;;;7.30;5.17;;;15.80;99.90;;;;;;5061932;28;20529;-72
2021/07/23 04:51:46;;;;;;;8.70;5.50;;;15.80;99.90;;;;;;5057409;28;20463;-71
2021/07/23 04:54:13;;;;;;;8.50;4.63;;;15.80;99.90;;;;;;5059519;28;20569;-71
2021/07/23 04:56:40;;;;;;;6.37;4.43;;;15.90;99.90;;;;;;5059869;28;20872;-71
2021/07/23 04:59:07;;;;;;;6.07;4.07;;;16.00;99.90;;;;;;5061303;28;20437;-72
2021/07/23 05:01:34;;;;;;;7.07;4.50;;;16.00;99.90;;;;;;5059844;28;20482;-72
2021/07/23 05:04:02;;;;;;;8.63;5.20;;;16.00;99.90;;;;;;5063143;28;20457;-72
2021/07/23 05:06:29;;;;;;;7.87;5.70;;;16.00;99.90;;;;;;5067022;28;20966;-72
2021/07/23 05:08:57;;;;;;;7.50;5.17;;;16.10;99.90;;;;;;5058255;28;20475;-72
2021/07/23 05:11:24;;;;;;;10.43;5.10;;;16.40;99.90;;;;;;5060971;28;20458;-72
2021/07/23 05:13:51;;;;;;;6.57;4.53;;;16.60;99.90;;;;;;5060898;28;20570;-72
2021/07/23 05:16:18;;;;;;;6.60;5.60;;;16.70;99.90;;;;;;5065235;28;20534;-72
2021/07/23 05:18:45;;;;;;;8.97;5.00;;;16.60;99.90;;;;;;5063811;28;20462;-72
2021/07/23 05:21:12;;;;;;;8.30;4.57;;;16.70;99.90;;;;;;5067345;28;20477;-72
2021/07/23 05:23:40;;;;;;;5.60;3.87;;;16.90;99.90;;;;;;5064314;28;20534;-72
2021/07/23 05:26:08;;;;;;;8.87;4.67;;;17.20;99.90;;;;;;5058273;28;20537;-72
2021/07/23 05:28:36;;;;;;;6.40;4.53;;;17.20;99.90;;;;;;5061957;28;20919;-73
2021/07/23 05:31:02;;;;;;;5.60;4.10;;;17.40;99.90;;;;;;5058594;28;20489;-71
2021/07/23 05:33:29;;;;;;;9.50;4.57;;;17.50;99.90;;;;;;5063670;28;20521;-72
2021/07/23 05:35:56;;;;;;;11.80;5.33;;;17.80;99.90;;;;;;5064908;28;20450;-72
2021/07/23 05:38:23;;;;;;;6.50;4.07;;;17.90;99.90;;;;;;5065748;28;20477;-71
2021/07/23 05:40:50;;;;;;;20.10;5.63;;;18.00;99.90;;;;;;5060396;28;20486;-71
2021/07/23 05:43:18;;;;;;;8.27;5.93;;;18.30;99.90;;;;;;5055024;28;20477;-71
2021/07/23 05:45:45;;;;;;;7.10;4.53;;;18.50;99.90;;;;;;5060430;28;20489;-71
2021/07/23 05:48:12;;;;;;;7.03;4.70;;;18.60;99.90;;;;;;5060732;28;20502;-72
2021/07/23 05:50:39;;;;;;;6.47;4.47;;;18.70;99.90;;;;;;5056345;28;20443;-71
2021/07/23 05:53:06;;;;;;;10.20;6.50;;;19.20;99.90;;;;;;5058685;28;20458;-72
2021/07/23 05:55:33;;;;;;;7.33;6.43;;;19.30;99.90;;;;;;5062598;28;20506;-72
2021/07/23 05:58:00;;;;;;;7.13;5.50;;;19.40;99.90;;;;;;5062482;28;20502;-71
2021/07/23 06:00:28;;;;;;;10.17;5.33;;;19.60;99.90;;;;;;5065583;28;20653;-72
2021/07/23 06:02:55;;;;;;;7.57;5.07;;;19.60;99.90;;;;;;5066485;28;20538;-72
2021/07/23 06:05:22;;;;;;;7.50;5.23;;;19.40;99.90;;;;;;5065258;28;20543;-71
2021/07/23 06:07:49;;;;;;;8.57;5.47;;;19.50;99.90;;;;;;5062427;28;20509;-71
2021/07/23 06:10:16;;;;;;;6.87;5.00;;;19.80;99.90;;;;;;5061337;28;20986;-72
2021/07/23 06:12:43;;;;;;;7.47;5.17;;;19.80;99.90;;;;;;5069248;28;20509;-72
2021/07/23 06:15:10;;;;;;;6.83;5.53;;;20.00;99.90;;;;;;5061122;28;20478;-72
2021/07/23 06:17:38;;;;;;;6.83;4.30;;;20.20;99.90;;;;;;5062050;28;20546;-69
2021/07/23 06:20:06;;;;;;;8.63;5.20;;;20.40;99.90;;;;;;5062073;28;20542;-72
2021/07/23 06:22:33;;;;;;;6.23;5.20;;;20.40;99.90;;;;;;5060761;28;20554;-72
2021/07/23 06:25:00;;;;;;;9.07;4.93;;;20.70;99.90;;;;;;5061756;28;20924;-72
2021/07/23 06:27:27;;;;;;;7.00;4.53;;;21.00;99.90;;;;;;5063877;28;20467;-72
2021/07/23 06:29:55;;;;;;;5.90;4.00;;;21.30;99.90;;;;;;5059576;28;20446;-71
2021/07/23 06:32:26;;;;;;;8.37;5.40;;;21.00;99.90;;;;;;5060484;28;20450;-72
2021/07/23 06:34:55;;;;;;;5.90;4.90;;;21.30;99.90;;;;;;5051615;28;20471;-72
2021/07/23 06:37:23;;;;;;;5.30;3.93;;;21.50;99.90;;;;;;5061659;28;20955;-71
2021/07/23 06:39:50;;;;;;;5.10;4.43;;;21.80;99.90;;;;;;5069431;28;20447;-72
2021/07/23 06:42:20;;;;;;;5.10;4.10;;;21.60;99.90;;;;;;5068122;28;20490;-72
2021/07/23 06:44:47;;;;;;;5.57;4.43;;;21.90;99.90;;;;;;5061868;28;20451;-71
2021/07/23 06:47:14;;;;;;;8.47;5.00;;;22.30;99.90;;;;;;5058229;28;20486;-71
2021/07/23 06:49:41;;;;;;;8.17;4.67;;;22.50;99.90;;;;;;5059749;28;20577;-71
2021/07/23 06:52:09;;;;;;;6.30;4.70;;;22.60;99.90;;;;;;5061434;28;20503;-72
2021/07/23 06:54:36;;;;;;;7.83;5.03;;;22.50;99.90;;;;;;5055385;28;20573;-72
2021/07/23 06:57:04;;;;;;;5.67;5.00;;;23.00;99.90;;;;;;5063977;28;20521;-71
2021/07/23 06:59:32;;;;;;;6.20;4.60;;;23.40;99.90;;;;;;5054528;28;20450;-72
2021/07/23 07:02:00;;;;;;;7.00;5.37;;;23.40;99.90;;;;;;5066666;28;20463;-71
2021/07/23 07:04:27;;;;;;;4.40;3.73;;;23.10;99.90;;;;;;5059924;28;20459;-71
2021/07/23 07:06:57;;;;;;;5.97;5.17;;;23.20;99.90;;;;;;5064032;28;20537;-72
2021/07/23 07:09:27;;;;;;;4.50;4.10;;;23.80;99.90;;;;;;5064332;28;20478;-70
2021/07/23 07:11:56;;;;;;;7.37;4.20;;;24.30;99.90;;;;;;5064076;28;20463;-72
2021/07/23 07:14:23;;;;;;;9.43;4.27;;;24.20;99.90;;;;;;5064926;28;20540;-72
2021/07/23 07:16:50;;;;;;;11.10;4.93;;;24.30;99.90;;;;;;5066324;28;20466;-72
2021/07/23 07:19:17;;;;;;;6.20;4.10;;;24.50;99.90;;;;;;5063925;28;20542;-72
2021/07/23 07:21:48;;;;;;;6.73;4.40;;;24.50;99.90;;;;;;5059781;28;20490;-73
2021/07/23 07:24:15;;;;;;;6.10;5.00;;;24.10;99.90;;;;;;5063386;28;20465;-72
2021/07/23 07:26:44;;;;;;;4.67;3.77;;;24.40;99.90;;;;;;5062667;28;20523;-72
2021/07/23 07:29:11;;;;;;;6.80;3.70;;;24.80;99.90;;;;;;5063659;28;20474;-72
2021/07/23 07:31:38;;;;;;;4.30;3.10;;;24.40;99.90;;;;;;5063626;28;20550;-72
2021/07/23 07:34:05;;;;;;;5.27;3.50;;;24.50;99.90;;;;;;5070722;28;20465;-72
2021/07/23 07:36:33;;;;;;;7.67;3.33;;;24.60;99.90;;;;;;5075469;28;20453;-71
2021/07/23 07:39:00;;;;;;;8.87;3.67;;;24.20;99.90;;;;;;5071166;28;20546;-72
2021/07/23 07:41:28;;;;;;;6.17;3.70;;;24.60;99.90;;;;;;5060301;28;20454;-71
2021/07/23 07:43:56;;;;;;;5.60;2.87;;;24.50;99.90;;;;;;5062403;28;20831;-72
2021/07/23 07:46:23;;;;;;;4.27;3.13;;;24.60;99.90;;;;;;5063775;28;20529;-72
2021/07/23 07:48:53;;;;;;;4.93;3.37;;;25.10;99.90;;;;;;5064104;28;20494;-72
2021/07/23 07:51:19;;;;;;;3.30;3.00;;;25.30;99.90;;;;;;5058238;28;20455;-73
2021/07/23 07:53:47;;;;;;;9.30;3.90;;;25.70;99.90;;;;;;5062289;28;20620;-72
2021/07/23 07:56:15;;;;;;;5.30;4.60;;;25.80;99.90;;;;;;5064814;28;20485;-72
2021/07/23 07:58:42;;;;;;;4.33;3.17;;;25.90;99.90;;;;;;5066508;28;20540;-73
2021/07/23 08:01:11;;;;;;;4.13;2.93;;;26.10;99.90;;;;;;5062543;28;20488;-72
2021/07/23 08:03:38;;;;;;;3.37;3.07;;;25.70;99.90;;;;;;5060229;28;20462;-72
2021/07/23 08:06:07;;;;;;;4.33;3.37;;;26.10;99.90;;;;;;5063180;28;20534;-73
2021/07/23 08:08:34;;;;;;;3.60;3.20;;;26.30;99.90;;;;;;5058786;28;20473;-72
2021/07/23 08:11:02;;;;;;;6.10;3.20;;;26.90;99.90;;;;;;5061645;28;20453;-73
2021/07/23 08:13:31;;;;;;;3.67;3.33;;;26.90;99.90;;;;;;5065119;28;20494;-72
2021/07/23 08:15:59;;;;;;;6.93;3.60;;;27.30;99.90;;;;;;5068795;28;20493;-73
2021/07/23 08:18:27;;;;;;;4.80;4.03;;;27.00;99.90;;;;;;5059257;28;20470;-73
2021/07/23 08:20:54;;;;;;;5.07;4.00;;;27.00;99.90;;;;;;5062958;28;20483;-72
2021/07/23 08:23:21;;;;;;;4.67;3.40;;;26.90;99.90;;;;;;5067202;28;20476;-72
2021/07/23 08:25:48;;;;;;;7.00;3.23;;;26.70;99.90;;;;;;5080391;28;20506;-73
2021/07/23 08:28:16;;;;;;;3.23;2.90;;;27.30;99.90;;;;;;5070331;28;20467;-72
2021/07/23 08:30:44;;;;;;;4.17;3.17;;;27.30;99.90;;;;;;5061160;28;20457;-72
2021/07/23 08:33:11;;;;;;;4.40;4.00;;;27.50;99.90;;;;;;5061152;28;20545;-72
2021/07/23 08:35:41;;;;;;;3.57;3.10;;;27.40;99.90;;;;;;5064691;28;20957;-72
2021/07/23 08:38:08;;;;;;;3.97;3.00;;;26.80;99.90;;;;;;5058600;28;20475;-73
2021/07/23 08:40:35;;;;;;;3.70;3.40;;;27.50;99.90;;;;;;5062179;28;20835;-72
2021/07/23 08:43:03;;;;;;;7.70;3.23;;;28.00;99.90;;;;;;5060711;28;20513;-73
2021/07/23 08:45:30;;;;;;;7.53;3.20;;;27.70;99.90;;;;;;5070361;28;20839;-72
2021/07/23 08:47:57;;;;;;;5.87;3.00;;;28.40;99.90;;;;;;5064830;28;20919;-73
2021/07/23 08:50:25;;;;;;;4.13;3.77;;;27.90;99.90;;;;;;5064820;28;20473;-73
2021/07/23 08:52:55;;;;;;;3.20;2.87;;;27.90;99.90;;;;;;5059297;28;20455;-72
2021/07/23 08:55:23;;;;;;;3.27;2.97;;;28.10;99.90;;;;;;5058854;28;20570;-72
2021/07/23 08:57:51;;;;;;;3.60;2.53;;;28.30;99.90;;;;;;5059393;28;20551;-71
2021/07/23 09:00:20;;;;;;;4.60;3.90;;;28.90;99.90;;;;;;5064010;28;20462;-72
2021/07/23 09:02:57;;;;;;;4.00;3.60;;;29.40;99.90;;;;;;5056483;28;20469;-73
2021/07/23 09:05:27;;;;;;;4.27;3.30;;;29.70;99.90;;;;;;5063636;28;20465;-72
2021/07/23 09:07:58;;;;;;;4.63;3.23;;;29.50;99.90;;;;;;5062040;28;20557;-73
2021/07/23 09:10:27;;;;;;;6.87;4.07;;;29.50;99.90;;;;;;5064183;28;20859;-72
2021/07/23 09:12:56;;;;;;;4.37;3.70;;;29.00;99.90;;;;;;5059337;28;20498;-72
2021/07/23 09:15:29;;;;;;;8.27;3.87;;;29.40;99.90;;;;;;5063800;28;20668;-71
2021/07/23 09:17:56;;;;;;;3.73;3.23;;;29.80;99.30;;;;;;5060439;28;20892;-73
2021/07/23 09:20:28;;;;;;;5.10;3.40;;;30.70;99.30;;;;;;5060230;28;20457;-73
2021/07/23 09:22:58;;;;;;;4.63;3.87;;;30.00;98.20;;;;;;5056321;28;20467;-72
2021/07/23 09:25:39;;;;;;;5.30;3.93;;;29.00;98.70;;;;;;5058023;28;20447;-72
2021/07/23 09:28:28;;;;;;;4.13;3.70;;;29.70;98.40;;;;;;5070954;28;20492;-73
2021/07/23 09:30:56;;;;;;;3.80;2.77;;;30.30;97.70;;;;;;5066074;28;20545;-72
2021/07/23 09:33:32;;;;;;;5.63;3.13;;;30.00;98.10;;;;;;5057021;28;20458;-70
2021/07/23 09:36:02;;;;;;;6.90;3.40;;;30.20;98.30;;;;;;5060338;28;21090;-71
2021/07/23 09:38:36;;;;;;;5.43;3.70;;;31.10;95.60;;;;;;5066575;28;20475;-71
2021/07/23 09:41:05;;;;;;;4.43;3.20;;;31.20;94.00;;;;;;5060244;28;20473;-71
2021/07/23 09:43:34;;;;;;;4.90;3.30;;;30.80;96.10;;;;;;5063119;28;20490;-71
2021/07/23 09:46:24;;;;;;;3.80;2.80;;;30.80;95.00;;;;;;5069317;28;20474;-71
2021/07/23 09:48:51;;;;;;;10.20;3.47;;;30.00;96.40;;;;;;5068965;28;20470;-71
2021/07/23 09:51:19;;;;;;;3.70;2.93;;;30.30;94.80;;;;;;5062406;28;20577;-71
2021/07/23 09:53:48;;;;;;;4.60;3.27;;;29.90;94.90;;;;;;5056458;28;20545;-71
2021/07/23 09:56:16;;;;;;;4.33;3.50;;;30.20;95.30;;;;;;5065987;28;20517;-72
2021/07/23 09:58:46;;;;;;;5.17;3.93;;;31.30;94.30;;;;;;5062177;28;20497;-71
2021/07/23 10:01:19;;;;;;;4.90;3.50;;;31.90;91.10;;;;;;5066339;28;20564;-72
2021/07/23 10:03:49;;;;;;;5.40;3.20;;;31.60;91.50;;;;;;5062120;28;20554;-72
2021/07/23 10:06:23;;;;;;;6.63;3.90;;;31.60;91.60;;;;;;5063489;28;20796;-72
2021/07/23 10:08:56;;;;;;;5.30;3.20;;;31.50;90.40;;;;;;5059163;28;20557;-71
2021/07/23 10:11:24;;;;;;;5.17;3.50;;;31.70;91.20;;;;;;5057719;28;20455;-72
2021/07/23 10:13:54;;;;;;;6.43;4.13;;;31.60;90.60;;;;;;5062216;28;20463;-71
2021/07/23 10:16:21;;;;;;;4.20;3.30;;;31.80;89.40;;;;;;5061089;28;20478;-71
2021/07/23 10:18:50;;;;;;;6.03;3.23;;;31.90;87.90;;;;;;5060108;28;21004;-71
2021/07/23 10:21:17;;;;;;;3.93;3.50;;;31.90;90.00;;;;;;5061640;28;20464;-70
2021/07/23 10:23:47;;;;;;;4.43;3.67;;;32.20;89.00;;;;;;5059991;28;20535;-72
2021/07/23 10:26:18;;;;;;;3.70;3.27;;;33.10;88.00;;;;;;5060076;28;20512;-71
2021/07/23 10:29:01;;;;;;;5.43;3.50;;;33.40;81.70;;;;;;5063291;28;20475;-72
2021/07/23 10:31:41;;;;;;;3.70;3.30;;;33.00;85.00;;;;;;5060096;28;20495;-72
2021/07/23 10:34:10;;;;;;;5.77;2.83;;;33.30;85.40;;;;;;5063431;28;20957;-71
2021/07/23 10:36:38;;;;;;;3.23;2.93;;;33.40;83.70;;;;;;5061797;28;20482;-71
2021/07/23 10:39:10;;;;;;;6.07;3.20;;;33.20;84.60;;;;;;5062176;28;20886;-72
2021/07/23 10:41:40;;;;;;;3.93;3.60;;;32.80;85.40;;;;;;5060517;28;20483;-71
2021/07/23 10:44:11;;;;;;;4.70;3.73;;;33.00;81.40;;;;;;5060694;28;20557;-72
2021/07/23 10:46:57;;;;;;;3.53;3.17;;;32.40;82.40;;;;;;5063870;28;20464;-72
2021/07/23 10:49:48;;;;;;;4.13;3.70;;;32.10;82.20;;;;;;5058699;28;20542;-72
2021/07/23 10:52:34;;;;;;;4.33;3.63;;;32.50;83.50;;;;;;5056229;28;20458;-72
2021/07/23 10:55:21;;;;;;;5.50;4.10;;;33.30;82.10;;;;;;5056943;28;20519;-71
2021/07/23 10:58:34;;;;;;;4.63;3.70;;;34.60;79.90;;;;;;5058859;28;20466;-70
2021/07/23 11:01:05;;;;;;;4.37;3.63;;;34.60;76.20;;;;;;5028825;28;20446;-72
2021/07/23 11:04:05;;;;;;;5.23;3.40;;;32.90;77.00;;;;;;5063702;28;20482;-71
2021/07/23 11:06:37;;;;;;;6.50;3.37;;;33.20;79.30;;;;;;5058561;28;20458;-71
2021/07/23 11:09:06;;;;;;;6.23;4.00;;;33.40;77.20;;;;;;5060230;28;20562;-71
2021/07/23 11:11:33;;;;;;;4.80;4.20;;;33.00;79.20;;;;;;5060636;28;21009;-71
2021/07/23 11:14:15;;;;;;;5.27;4.33;;;33.50;78.60;;;;;;5057348;28;20555;-70
2021/07/23 11:16:43;;;;;;;5.73;4.00;;;33.80;76.40;;;;;;5065044;28;20483;-71
2021/07/23 11:19:18;;;;;;;4.90;3.60;;;33.80;78.50;;;;;;5059107;28;20613;-72
2021/07/23 11:21:46;;;;;;;6.83;4.70;;;33.50;74.60;;;;;;5055339;28;20545;-72
2021/07/23 11:24:14;;;;;;;4.33;3.20;;;33.30;75.90;;;;;;5058452;28;20494;-72
2021/07/23 11:26:49;;;;;;;4.60;4.20;;;33.20;76.50;;;;;;5063092;28;20554;-72
2021/07/23 11:29:30;;;;;;;5.30;4.30;;;33.20;78.90;;;;;;5056030;28;20969;-72
2021/07/23 11:32:05;;;;;;;5.70;3.93;;;34.00;73.60;;;;;;5056438;28;20509;-72
2021/07/23 11:34:36;;;;;;;4.40;3.10;;;33.90;73.70;;;;;;5058387;28;20456;-73
2021/07/23 11:37:13;;;;;;;3.73;3.33;;;33.80;72.30;;;;;;5055676;28;20580;-72
2021/07/23 11:39:52;;;;;;;5.07;4.43;;;34.10;74.40;;;;;;5054981;28;20535;-71
2021/07/23 11:42:19;;;;;;;6.80;3.80;;;34.00;71.60;;;;;;5060593;28;20563;-72
2021/07/23 11:44:54;;;;;;;3.70;3.03;;;33.00;73.10;;;;;;5058494;28;20483;-72
2021/07/23 11:47:33;;;;;;;5.40;4.30;;;33.20;75.00;;;;;;5068593;28;20485;-72
2021/07/23 11:50:02;;;;;;;4.87;4.00;;;33.50;74.60;;;;;;5065081;28;20896;-72
2021/07/23 11:52:29;;;;;;;5.17;3.60;;;34.10;71.30;;;;;;5058666;28;20538;-71
2021/07/23 11:54:57;;;;;;;4.63;3.90;;;34.70;70.60;;;;;;5067494;28;20537;-72
2021/07/23 11:57:25;;;;;;;5.17;3.53;;;35.60;68.20;;;;;;5069947;28;20928;-70
2021/07/23 11:59:52;;;;;;;6.50;3.87;;;35.90;66.30;;;;;;5067888;28;20451;-71
2021/07/23 12:02:19;;;;;;;8.00;3.80;;;35.40;65.40;;;;;;5070743;28;20553;-71
2021/07/23 12:04:48;;;;;;;7.03;4.20;;;35.60;67.80;;;;;;5066413;28;20485;-71
2021/07/23 12:07:18;;;;;;;6.90;4.40;;;35.10;68.50;;;;;;5070402;28;20554;-71
2021/07/23 12:09:46;;;;;;;4.00;3.23;;;35.70;65.30;;;;;;5072172;28;20442;-71
2021/07/23 12:12:13;;;;;;;4.60;4.00;;;35.90;62.90;;;;;;5062746;28;20555;-71
2021/07/23 12:14:40;;;;;;;6.60;4.17;;;35.90;63.70;;;;;;5058517;28;20520;-71
2021/07/23 12:17:07;;;;;;;5.37;3.90;;;35.00;65.50;;;;;;5062784;28;20487;-71
2021/07/23 12:19:34;;;;;;;4.33;3.30;;;35.30;62.80;;;;;;5071299;28;20886;-71
2021/07/23 12:22:14;;;;;;;5.53;4.20;;;36.10;63.20;;;;;;5063638;28;20549;-71
2021/07/23 12:24:40;;;;;;;13.53;7.23;;;35.00;65.40;;;;;;5054593;28;20448;-71
2021/07/23 12:27:17;;;;;;;5.30;4.23;;;34.10;65.10;;;;;;5069950;28;20524;-71
2021/07/23 12:29:44;;;;;;;3.90;3.33;;;33.70;67.10;;;;;;5070319;28;20482;-71
2021/07/23 12:32:13;;;;;;;4.20;3.47;;;34.20;66.20;;;;;;5064249;28;20955;-71
2021/07/23 12:34:39;;;;;;;7.17;4.30;;;34.50;65.40;;;;;;5059113;28;20463;-72
2021/07/23 12:37:17;;;;;;;7.30;4.23;;;34.90;63.10;;;;;;5066057;28;20490;-72
2021/07/23 12:39:51;;;;;;;4.80;3.80;;;34.90;63.90;;;;;;5063859;28;20439;-72
2021/07/23 12:42:19;;;;;;;4.33;3.80;;;34.90;62.60;;;;;;5057663;28;20584;-72
2021/07/23 12:44:46;;;;;;;5.73;3.67;;;35.10;63.30;;;;;;5061575;28;20471;-72
2021/07/23 12:47:18;;;;;;;6.70;3.47;;;35.40;60.90;;;;;;5060488;28;20571;-72
2021/07/23 12:49:45;;;;;;;4.73;4.27;;;35.00;61.40;;;;;;5062999;28;21155;-72
2021/07/23 12:52:13;;;;;;;7.43;2.50;;;35.10;63.60;;;;;;5066404;28;20466;-72
2021/07/23 12:54:42;;;;;;;4.23;3.53;;;34.90;63.30;;;;;;5065597;28;20502;-72